Grand Princess — ZCBU5 — position and weather

sailwx.info

Track history (hours):
 
Tides and Currents Weather Stations Pressure Air Temp Water Temp Dewpoint Dewpoint Depression Visibility Wind Speed Wind Dir Waves Ship Positions

Grand Princess

Operator: Princess Cruises

Last reported at 2015-Mar-05 13:08 UTC. Time now 2015-Mar-05 22:39 UTC.
Position N 32°11' W 122°11'.

Length 289.5 m; beam 36 m; draft 8.5 m.

Type: Ship. MMSI: 310327000.

Date/timePositionNaut miles runAvg speedWind from/ knotsBaromVisibWave heightAir tempDewpointWater temp
2015-Mar-05 13:08N 32°11' W 122°11'7420.0
2015-Mar-05 09:25N 32°40' W 120°50'4119.8
2015-Mar-05 07:21N 32°56' W 120°05'1519.7
2015-Mar-05 06:34N 33°02' W 119°48'1919.4
2015-Mar-05 05:34N 33°09' W 119°26'2019.7
2015-Mar-05 04:34N 33°17' W 119°05'3517.7
2015-Mar-05 02:33N 33°33' W 118°27'1211.9
2015-Mar-05 01:33N 33°40' W 118°15'5 5.1
2015-Mar-05 00:31N 33°45' W 118°17'0 0.0
2015-Mar-04 23:31N 33°45' W 118°17'0 0.0
2015-Mar-04 22:30N 33°45' W 118°17'0 0.0
2015-Mar-04 21:33N 33°45' W 118°17'0 0.0
2015-Mar-04 20:32N 33°45' W 118°17'0 0.0
2015-Mar-04 19:32N 33°45' W 118°17'0 0.0
2015-Mar-04 18:31N 33°45' W 118°17'0 0.0
2015-Mar-04 17:31N 33°45' W 118°17'0 0.0
2015-Mar-04 16:31N 33°45' W 118°17'0 0.0
2015-Mar-04 15:33N 33°45' W 118°17'0 0.1
2015-Mar-04 14:33N 33°45' W 118°17'5 5.2
2015-Mar-04 13:33N 33°41' W 118°13'1110.8
2015-Mar-04 12:33N 33°31' W 118°07'1212.1
2015-Mar-04 11:32N 33°19' W 118°02'1212.3
2015-Mar-04 10:33N 33°08' W 117°57'1212.2
2015-Mar-04 09:33N 32°57' W 117°51'1212.1
2015-Mar-04 08:33N 32°46' W 117°45'1212.1
2015-Mar-04 07:33N 32°35' W 117°40'1311.5
2015-Mar-04 06:27N 32°23' W 117°34'  
Track history (hours):
 
Tides and Currents Weather Stations Pressure Air Temp Water Temp Dewpoint Dewpoint Depression Visibility Wind Speed Wind Dir Waves Ship Positions

Grand Princess

Operator: Princess Cruises

Last reported at 2015-Mar-05 13:08 UTC. Time now 2015-Mar-05 22:39 UTC.
Position N 32°11' W 122°11'.

Length 289.5 m; beam 36 m; draft 8.5 m.

Type: Ship. MMSI: 310327000.

Date/timePositionNaut miles runAvg speedWind from/ knotsBaromVisibWave heightAir tempDewpointWater temp
2015-Mar-05 13:08N 32°11' W 122°11'7420.0
2015-Mar-05 09:25N 32°40' W 120°50'4119.8
2015-Mar-05 07:21N 32°56' W 120°05'1519.7
2015-Mar-05 06:34N 33°02' W 119°48'1919.4
2015-Mar-05 05:34N 33°09' W 119°26'2019.7
2015-Mar-05 04:34N 33°17' W 119°05'3517.7
2015-Mar-05 02:33N 33°33' W 118°27'1211.9
2015-Mar-05 01:33N 33°40' W 118°15'5 5.1
2015-Mar-05 00:31N 33°45' W 118°17'0 0.0
2015-Mar-04 23:31N 33°45' W 118°17'0 0.0
2015-Mar-04 22:30N 33°45' W 118°17'0 0.0
2015-Mar-04 21:33N 33°45' W 118°17'0 0.0
2015-Mar-04 20:32N 33°45' W 118°17'0 0.0
2015-Mar-04 19:32N 33°45' W 118°17'0 0.0
2015-Mar-04 18:31N 33°45' W 118°17'0 0.0
2015-Mar-04 17:31N 33°45' W 118°17'0 0.0
2015-Mar-04 16:31N 33°45' W 118°17'0 0.0
2015-Mar-04 15:33N 33°45' W 118°17'0 0.1
2015-Mar-04 14:33N 33°45' W 118°17'5 5.2
2015-Mar-04 13:33N 33°41' W 118°13'1110.8
2015-Mar-04 12:33N 33°31' W 118°07'1212.1
2015-Mar-04 11:32N 33°19' W 118°02'1212.3
2015-Mar-04 10:33N 33°08' W 117°57'1212.2
2015-Mar-04 09:33N 32°57' W 117°51'1212.1
2015-Mar-04 08:33N 32°46' W 117°45'1212.1
2015-Mar-04 07:33N 32°35' W 117°40'1311.5
2015-Mar-04 06:27N 32°23' W 117°34'  

Dump ship's entire track history